New Bern, NC

11:33 AM EDT on October 02, 2014 (GMT -0400)
Piney Island | Change Station
CLOSE
Current Station
Airport
Location: Piney Island,
Elevation: 16 ft
Nearby Weather Stations

Elev 16 ft 35.02 °N, 76.46 °W | Updated 37 minutes ago

Clear
Clear
74 °F
Feels Like 74 °F
N
8
Wind Variable Wind from NE

Today
High -- | Low -- °F
--% Chance of Precip.
Yesterday
High -- | Low -- °F
Precip. -- in
7:03 AM 6:50 PM
First Quarter, 59% visible
Pressure 30.12 in
Visibility 6.0 miles
Clouds Clear
Dew Point 63 °F
Humidity 68%
Rainfall 0.00 in
Snow Depth Not available.
UV 6 out of 12
Pollen 5.10 out of 12
Air Quality Not available.
Flu Activity Not available.
METAR KNBT 021456Z AUTO 04007KT 6SM HZ CLR 23/17 A3011 RMK AO2 SLP200 6//// T02330172 50006 PNO $

More Conditions Fewer Conditions

Pressure 30.12 in
Visibility 6.0 miles
Clouds Clear
Dew Point 63 °F
Humidity 68%
Rainfall 0.00 in
Snow Depth Not available.
UV 6 out of 12
Pollen 5.10 out of 12
Air Quality Not available.
Flu Activity Not available.
METAR KNBT 021456Z AUTO 04007KT 6SM HZ CLR 23/17 A3011 RMK AO2 SLP200 6//// T02330172 50006 PNO $

More Conditions Fewer Conditions

10-Day Weather Forecast

Almanac

Astronomy

Oct. 02, 2014 Rise Set
Actual Time 7:03 AM EDT 6:50 PM EDT
Civil Twilight 6:38 AM EDT 7:15 PM EDT
Nautical Twilight 6:08 AM EDT 7:45 PM EDT
Astronomical Twilight 5:39 AM EDT 8:14 PM EDT
Moon 2:43 PM EDT 12:30 AM EDT
Length of Visible Light 12h 37m
Length of Day
11h 46m
Tomorrow will be 2m 10s shorter.
First Quarter, 59% of the Moon is Illuminated
Today
First Quarter
Oct 8
Full
Oct 15
Last Quarter
Oct 23
New
Oct 30
First Quarter

Today's Extremes

State Highs State Lows

Community

WunderPhotos

Upload Photos

1,758,276 photos uploaded!

WunderBlogs® & News

Nearby

Snow Depth

Station Depth Elevation
No new snow has been reported.

Earthquake Activity

City Distance Mag. Time & Date
No recent earthquake activity has been reported nearby.
Minimum magnitude displayed is 2.5.

Coastal Water Temperatures

Place Temperature
No Stations Reporting

Nearby Weather Stations